createdAt,value
2023-02-19T00:00:59.155Z,100829.84
2023-02-19T00:03:25.518Z,100830.75
2023-02-19T00:05:51.926Z,100830.13
2023-02-19T00:08:18.220Z,100824.78
2023-02-19T00:10:44.607Z,100838.22
2023-02-19T00:13:10.933Z,100843.31
2023-02-19T00:15:37.245Z,100836.59
2023-02-19T00:18:03.669Z,100829.84
2023-02-19T00:20:29.960Z,100838.31
2023-02-19T00:22:56.271Z,100828.19
2023-02-19T00:25:22.582Z,100837.38
2023-02-19T00:27:48.894Z,100832.25
2023-02-19T00:30:15.241Z,100824.50
2023-02-19T00:32:41.548Z,100827.91
2023-02-19T00:35:07.920Z,100822.41
2023-02-19T00:37:34.199Z,100816.94
2023-02-19T00:40:00.534Z,100816.78
2023-02-19T00:42:26.870Z,100811.66
2023-02-19T00:44:53.178Z,100802.53
2023-02-19T00:47:19.484Z,100806.00
2023-02-19T00:49:45.793Z,100801.66
2023-02-19T00:52:12.091Z,100810.13
2023-02-19T00:54:38.528Z,100807.34
2023-02-19T00:57:04.858Z,100809.91
2023-02-19T00:59:31.195Z,100811.63
2023-02-19T01:01:57.560Z,100812.44
2023-02-19T01:04:23.949Z,100821.84
2023-02-19T01:06:50.372Z,100812.44
2023-02-19T01:09:16.750Z,100802.22
2023-02-19T01:11:43.070Z,100808.34
2023-02-19T01:14:09.706Z,100801.59
2023-02-19T01:16:36.208Z,100799.84
2023-02-19T01:19:02.728Z,100797.38
2023-02-19T01:21:30.655Z,100789.63
2023-02-19T01:23:58.103Z,100789.78
2023-02-19T01:26:25.558Z,100793.84
2023-02-19T01:28:52.189Z,100776.81
2023-02-19T01:31:20.946Z,100770.09
2023-02-19T01:33:50.269Z,100767.50
2023-02-19T01:36:16.794Z,100765.03
2023-02-19T01:38:43.538Z,100762.50
2023-02-19T01:41:12.838Z,100752.31
2023-02-19T01:44:14.769Z,100740.97
2023-02-19T01:46:42.628Z,100731.09
2023-02-19T01:49:23.723Z,100738.53
2023-02-19T01:52:00.461Z,100749.66
2023-02-19T01:54:30.842Z,100746.13
2023-02-19T01:56:58.752Z,100748.03
2023-02-19T01:59:25.778Z,100741.88
2023-02-19T02:01:52.239Z,100737.59
2023-02-19T02:04:18.958Z,100729.13
2023-02-19T02:06:54.730Z,100728.28
2023-02-19T02:09:25.209Z,100731.66
2023-02-19T02:11:52.747Z,100724.97
2023-02-19T02:14:23.216Z,100706.25
2023-02-19T02:17:19.724Z,100708.66
2023-02-19T02:20:14.650Z,100703.44
2023-02-19T02:22:52.744Z,100711.97
2023-02-19T02:25:54.733Z,100709.28
2023-02-19T02:28:55.122Z,100705.06
2023-02-19T02:31:35.547Z,100706.38
2023-02-19T02:34:14.828Z,100715.69
2023-02-19T02:36:45.534Z,100728.47
2023-02-19T02:39:15.650Z,100726.84
2023-02-19T02:41:45.000Z,100722.47
2023-02-19T02:44:11.835Z,100714.84
2023-02-19T02:46:44.690Z,100717.19
2023-02-19T02:49:22.857Z,100716.13
2023-02-19T02:51:53.869Z,100712.16
2023-02-19T02:54:26.006Z,100709.25
2023-02-19T02:56:54.780Z,100718.31
2023-02-19T02:59:24.970Z,100720.75
2023-02-19T03:01:56.946Z,100721.56
2023-02-19T03:04:46.091Z,100719.94
2023-02-19T03:07:12.567Z,100732.56
2023-02-19T03:09:42.420Z,100724.72
2023-02-19T03:12:14.624Z,100723.94
2023-02-19T03:14:48.960Z,100724.66
2023-02-19T03:17:21.908Z,100726.00
2023-02-19T03:19:52.709Z,100734.38
2023-02-19T03:22:25.710Z,100741.00
2023-02-19T03:25:00.307Z,100740.84
2023-02-19T03:27:30.256Z,100746.84
2023-02-19T03:30:01.238Z,100756.13
2023-02-19T03:32:34.208Z,100749.44
2023-02-19T03:35:13.685Z,100746.78
2023-02-19T03:38:06.378Z,100748.41
2023-02-19T03:40:57.484Z,100754.81
2023-02-19T03:43:52.283Z,100753.66
2023-02-19T03:46:33.822Z,100756.03
2023-02-19T03:49:09.301Z,100754.38
2023-02-19T03:51:44.125Z,100757.66
2023-02-19T03:54:35.454Z,100761.63
2023-02-19T03:57:23.177Z,100761.34
2023-02-19T04:00:13.508Z,100764.13
2023-02-19T04:03:06.876Z,100757.19
2023-02-19T04:05:38.381Z,100754.66
2023-02-19T04:08:11.661Z,100757.94
2023-02-19T04:10:39.594Z,100757.59
2023-02-19T04:13:14.963Z,100759.50
2023-02-19T04:15:44.204Z,100765.50
2023-02-19T04:18:25.512Z,100773.66
2023-02-19T04:20:52.693Z,100771.22
2023-02-19T04:23:22.451Z,100775.28
2023-02-19T04:25:53.153Z,100784.75
2023-02-19T04:28:19.434Z,100779.53
2023-02-19T04:30:46.170Z,100784.34
2023-02-19T04:33:12.578Z,100789.09
2023-02-19T04:35:38.906Z,100793.50
2023-02-19T04:38:05.233Z,100796.78
2023-02-19T04:40:31.609Z,100796.56
2023-02-19T04:42:57.925Z,100796.47
2023-02-19T04:45:24.280Z,100792.19
2023-02-19T04:47:50.707Z,100792.81
2023-02-19T04:50:17.311Z,100795.25
2023-02-19T04:52:43.644Z,100798.44
2023-02-19T04:55:10.633Z,100805.97
2023-02-19T04:57:36.922Z,100792.41
2023-02-19T05:00:03.821Z,100801.72
2023-02-19T05:02:30.154Z,100809.72
2023-02-19T05:04:56.448Z,100810.34
2023-02-19T05:07:22.746Z,100816.94
2023-02-19T05:09:49.083Z,100816.13
2023-02-19T05:12:15.373Z,100816.06
2023-02-19T05:14:41.669Z,100817.59
2023-02-19T05:17:07.976Z,100813.34
2023-02-19T05:19:34.312Z,100813.13
2023-02-19T05:22:00.625Z,100808.19
2023-02-19T05:24:26.940Z,100804.97
2023-02-19T05:26:53.247Z,100809.09
2023-02-19T05:29:19.691Z,100811.72
2023-02-19T05:31:46.027Z,100807.75
2023-02-19T05:34:12.406Z,100801.22
2023-02-19T05:36:39.334Z,100802.50
2023-02-19T05:39:05.653Z,100804.03
2023-02-19T05:41:32.006Z,100810.81
2023-02-19T05:43:58.626Z,100806.06
2023-02-19T05:46:27.685Z,100814.25
2023-02-19T05:48:54.103Z,100813.44
2023-02-19T05:51:22.920Z,100816.28
2023-02-19T05:53:49.503Z,100819.66
2023-02-19T05:56:34.205Z,100815.97
2023-02-19T05:59:03.338Z,100826.06
2023-02-19T06:01:30.443Z,100825.13
2023-02-19T06:03:57.823Z,100826.06
2023-02-19T06:06:25.202Z,100821.03
2023-02-19T06:08:51.964Z,100817.75
2023-02-19T06:11:18.795Z,100819.16
2023-02-19T06:13:45.210Z,100819.78
2023-02-19T06:16:11.665Z,100816.56
2023-02-19T06:18:38.138Z,100813.28
2023-02-19T06:21:06.431Z,100811.72
2023-02-19T06:23:32.802Z,100820.94
2023-02-19T06:26:16.641Z,100818.06
2023-02-19T06:28:43.724Z,100823.03
2023-02-19T06:31:11.545Z,100824.03
2023-02-19T06:33:38.912Z,100823.09
2023-02-19T06:36:07.603Z,100835.53
2023-02-19T06:38:33.981Z,100842.22
2023-02-19T06:41:01.673Z,100846.13
2023-02-19T06:43:28.372Z,100849.91
2023-02-19T06:45:54.885Z,100857.28
2023-02-19T06:48:21.165Z,100861.09
2023-02-19T06:50:47.469Z,100869.22
2023-02-19T06:53:13.760Z,100878.31
2023-02-19T06:55:40.080Z,100882.78
2023-02-19T06:58:07.266Z,100876.22
2023-02-19T07:00:34.700Z,100892.91
2023-02-19T07:03:01.064Z,100897.75
2023-02-19T07:05:27.416Z,100888.75
2023-02-19T07:07:53.725Z,100891.16
2023-02-19T07:10:20.036Z,100892.78
2023-02-19T07:12:46.344Z,100886.31
2023-02-19T07:15:12.648Z,100899.81
2023-02-19T07:17:38.972Z,100903.47
2023-02-19T07:20:05.708Z,100908.53
2023-02-19T07:22:32.050Z,100912.84
2023-02-19T07:24:58.362Z,100915.63
2023-02-19T07:27:24.630Z,100915.63
2023-02-19T07:29:50.924Z,100924.25
2023-02-19T07:32:17.220Z,100928.28
2023-02-19T07:34:43.522Z,100931.09
2023-02-19T07:37:09.810Z,100944.53
2023-02-19T07:39:36.137Z,100943.00
2023-02-19T07:42:02.508Z,100940.59
2023-02-19T07:44:28.808Z,100948.09
2023-02-19T07:46:55.141Z,100952.63
2023-02-19T07:49:21.430Z,100959.69
2023-02-19T07:51:47.755Z,100967.41
2023-02-19T07:54:14.061Z,100958.78
2023-02-19T07:56:40.394Z,100962.88
2023-02-19T07:59:06.692Z,100969.81
2023-02-19T08:01:33.182Z,100972.19
2023-02-19T08:03:59.551Z,100986.94
2023-02-19T08:06:25.918Z,100987.72
2023-02-19T08:08:52.223Z,100994.25
2023-02-19T08:11:18.505Z,101008.81
2023-02-19T08:13:44.930Z,101014.75
2023-02-19T08:16:21.860Z,101012.41
2023-02-19T08:18:53.154Z,101015.34
2023-02-19T08:21:19.493Z,101024.59
2023-02-19T08:23:45.793Z,101022.06
2023-02-19T08:26:12.251Z,101029.78
2023-02-19T08:28:38.573Z,101040.72
2023-02-19T08:31:06.707Z,101050.16
2023-02-19T08:33:33.141Z,101056.22
2023-02-19T08:36:07.032Z,101068.22
2023-02-19T08:38:34.638Z,101074.00
2023-02-19T08:41:04.378Z,101072.34
2023-02-19T08:43:30.676Z,101082.69
2023-02-19T08:45:57.017Z,101081.94
2023-02-19T08:48:23.319Z,101079.47
2023-02-19T08:51:04.671Z,101086.59
2023-02-19T08:53:32.503Z,101085.84
2023-02-19T08:55:58.973Z,101093.66
2023-02-19T08:58:25.268Z,101093.22
2023-02-19T09:00:52.509Z,101102.38
2023-02-19T09:03:18.797Z,101101.88
2023-02-19T09:05:45.142Z,101112.09
2023-02-19T09:08:11.433Z,101130.94
2023-02-19T09:10:37.745Z,101113.94
2023-02-19T09:13:04.454Z,101119.53
2023-02-19T09:15:30.944Z,101132.28
2023-02-19T09:17:57.266Z,101129.69
2023-02-19T09:20:23.620Z,101124.88
2023-02-19T09:22:49.941Z,101133.22
2023-02-19T09:25:16.322Z,101132.91
2023-02-19T09:27:42.721Z,101137.44
2023-02-19T09:30:09.377Z,101145.22
2023-02-19T09:32:35.677Z,101137.97
2023-02-19T09:35:02.009Z,101140.59
2023-02-19T09:37:28.550Z,101143.13
2023-02-19T09:39:55.398Z,101149.66
2023-02-19T09:42:28.186Z,101146.22
2023-02-19T09:44:57.326Z,101141.16
2023-02-19T09:47:27.222Z,101148.06
2023-02-19T09:50:02.515Z,101153.06
2023-02-19T09:52:35.622Z,101159.00
2023-02-19T09:55:09.748Z,101160.88
2023-02-19T09:57:36.454Z,101166.97
2023-02-19T10:00:11.757Z,101172.06
2023-02-19T10:02:38.980Z,101172.06
2023-02-19T10:05:14.362Z,101174.84
2023-02-19T10:07:47.585Z,101178.59
2023-02-19T10:10:13.833Z,101189.50
2023-02-19T10:12:53.766Z,101194.25
2023-02-19T10:15:31.482Z,101196.69
2023-02-19T10:17:58.039Z,101183.94
2023-02-19T10:20:25.724Z,101196.28
2023-02-19T10:23:02.173Z,101200.31
2023-02-19T10:25:30.028Z,101212.84
2023-02-19T10:28:01.936Z,101220.75
2023-02-19T10:30:31.689Z,101221.09
2023-02-19T10:33:10.426Z,101224.03
2023-02-19T10:35:51.012Z,101229.50
2023-02-19T10:38:20.196Z,101233.06
2023-02-19T10:40:47.070Z,101236.06
2023-02-19T10:43:25.423Z,101246.75
2023-02-19T10:45:52.081Z,101241.75
2023-02-19T10:48:24.918Z,101247.03
2023-02-19T10:50:53.715Z,101263.13
2023-02-19T10:53:23.581Z,101260.34
2023-02-19T10:56:07.288Z,101267.91
2023-02-19T10:58:33.628Z,101262.94
2023-02-19T11:01:19.158Z,101269.28
2023-02-19T11:03:46.897Z,101272.97
2023-02-19T11:06:15.323Z,101282.78
2023-02-19T11:08:52.138Z,101283.34
2023-02-19T11:11:24.498Z,101277.44
2023-02-19T11:13:51.180Z,101287.16
2023-02-19T11:16:17.889Z,101286.84
2023-02-19T11:18:44.384Z,101290.72
2023-02-19T11:21:30.998Z,101291.38
2023-02-19T11:23:57.306Z,101303.50
2023-02-19T11:26:26.689Z,101303.47
2023-02-19T11:28:58.840Z,101302.91
2023-02-19T11:31:32.894Z,101308.25
2023-02-19T11:34:15.499Z,101313.72
2023-02-19T11:36:42.619Z,101314.59
2023-02-19T11:39:14.918Z,101312.91
2023-02-19T11:42:28.285Z,101307.84
2023-02-19T11:45:26.775Z,101318.06
2023-02-19T11:48:08.722Z,101324.28
2023-02-19T11:50:34.966Z,101326.16
2023-02-19T11:53:21.234Z,101328.88
2023-02-19T11:56:07.554Z,101324.50
2023-02-19T11:58:46.035Z,101317.34
2023-02-19T12:01:27.748Z,101315.94
2023-02-19T12:04:14.263Z,101321.53
2023-02-19T12:07:11.852Z,101320.50
2023-02-19T12:09:47.364Z,101316.63
2023-02-19T12:12:19.814Z,101311.63
2023-02-19T12:15:00.410Z,101322.38
2023-02-19T12:17:52.592Z,101328.38
2023-02-19T12:20:34.185Z,101330.75
2023-02-19T12:23:18.999Z,101344.06
2023-02-19T12:26:14.117Z,101331.25
2023-02-19T12:29:02.421Z,101336.97
2023-02-19T12:31:47.457Z,101342.28
2023-02-19T12:34:35.229Z,101342.09
2023-02-19T12:37:08.657Z,101344.41
2023-02-19T12:39:52.297Z,101354.78
2023-02-19T12:42:27.928Z,101360.41
2023-02-19T12:45:01.045Z,101356.22
2023-02-19T12:47:40.665Z,101361.50
2023-02-19T12:50:21.621Z,101361.00
2023-02-19T12:52:55.213Z,101363.03
2023-02-19T12:55:30.563Z,101345.19
2023-02-19T12:58:01.610Z,101350.09
2023-02-19T13:00:54.362Z,101358.81
2023-02-19T13:03:32.678Z,101353.25
2023-02-19T13:06:26.622Z,101366.38
2023-02-19T13:09:06.506Z,101367.91
2023-02-19T13:11:45.973Z,101367.81
2023-02-19T13:14:21.208Z,101368.03
2023-02-19T13:16:52.790Z,101367.50
2023-02-19T13:19:21.238Z,101384.03
2023-02-19T13:21:59.251Z,101378.19
2023-02-19T13:24:32.513Z,101382.63
2023-02-19T13:27:05.456Z,101391.31
2023-02-19T13:29:58.805Z,101386.78
2023-02-19T13:32:41.123Z,101376.22
2023-02-19T13:35:59.509Z,101389.28
2023-02-19T13:38:29.763Z,101387.69
2023-02-19T13:41:07.634Z,101386.72
2023-02-19T13:43:40.969Z,101385.13
2023-02-19T13:46:15.896Z,101382.59
2023-02-19T13:48:43.739Z,101399.84
2023-02-19T13:51:13.287Z,101398.81
2023-02-19T13:53:42.918Z,101389.50
2023-02-19T13:56:31.484Z,101384.13
2023-02-19T13:59:19.609Z,101394.22
2023-02-19T14:01:54.932Z,101409.94
2023-02-19T14:04:25.575Z,101416.56
2023-02-19T14:07:22.341Z,101418.72
2023-02-19T14:09:49.301Z,101429.09
2023-02-19T14:12:16.345Z,101424.00
2023-02-19T14:14:46.827Z,101419.47
2023-02-19T14:17:27.141Z,101432.63
2023-02-19T14:19:53.378Z,101428.59
2023-02-19T14:22:44.623Z,101430.22
2023-02-19T14:25:36.536Z,101428.91
2023-02-19T14:28:24.654Z,101439.69
2023-02-19T14:30:52.641Z,101432.94
2023-02-19T14:33:49.656Z,101439.53
2023-02-19T14:36:27.203Z,101444.28
2023-02-19T14:38:57.891Z,101441.97
2023-02-19T14:41:25.067Z,101441.06
2023-02-19T14:43:55.254Z,101430.63
2023-02-19T14:46:37.137Z,101427.84
2023-02-19T14:49:23.671Z,101435.00
2023-02-19T14:52:17.296Z,101436.66
2023-02-19T14:54:51.021Z,101434.78
2023-02-19T14:57:26.194Z,101445.44
2023-02-19T14:59:58.751Z,101451.19
2023-02-19T15:02:27.110Z,101453.41
2023-02-19T15:04:54.344Z,101449.09
2023-02-19T15:07:25.515Z,101444.25
2023-02-19T15:09:54.690Z,101446.84
2023-02-19T15:12:28.619Z,101464.78
2023-02-19T15:14:59.819Z,101476.63
2023-02-19T15:17:29.491Z,101476.19
2023-02-19T15:19:59.190Z,101465.25
2023-02-19T15:22:27.884Z,101467.28
2023-02-19T15:24:55.266Z,101473.06
2023-02-19T15:27:22.979Z,101468.09
2023-02-19T15:29:53.577Z,101481.16
2023-02-19T15:32:23.294Z,101480.28
2023-02-19T15:34:58.378Z,101472.47
2023-02-19T15:37:27.790Z,101478.25
2023-02-19T15:39:56.400Z,101480.63
2023-02-19T15:42:30.310Z,101476.28
2023-02-19T15:44:56.528Z,101483.09
2023-02-19T15:47:43.470Z,101489.00
2023-02-19T15:50:17.382Z,101491.34
2023-02-19T15:52:50.088Z,101492.97
2023-02-19T15:55:29.225Z,101497.72
2023-02-19T15:58:08.189Z,101504.31
2023-02-19T16:00:57.565Z,101501.56
2023-02-19T16:03:26.366Z,101509.31
2023-02-19T16:06:04.595Z,101510.94
2023-02-19T16:08:36.561Z,101508.63
2023-02-19T16:11:06.023Z,101520.25
2023-02-19T16:13:34.428Z,101532.75
2023-02-19T16:16:19.176Z,101536.81
2023-02-19T16:18:48.020Z,101529.69
2023-02-19T16:21:17.390Z,101530.47
2023-02-19T16:23:46.973Z,101535.31
2023-02-19T16:26:13.758Z,101542.75
2023-02-19T16:28:41.856Z,101549.44
2023-02-19T16:31:11.723Z,101557.81
2023-02-19T16:33:43.764Z,101554.91
2023-02-19T16:36:25.031Z,101564.25
2023-02-19T16:39:06.538Z,101564.47
2023-02-19T16:41:44.929Z,101575.22
2023-02-19T16:44:20.270Z,101567.13
2023-02-19T16:46:51.187Z,101574.38
2023-02-19T16:49:18.169Z,101583.13
2023-02-19T16:51:45.946Z,101577.69
2023-02-19T16:54:13.102Z,101578.94
2023-02-19T16:56:39.916Z,101585.50
2023-02-19T16:59:06.392Z,101585.25
2023-02-19T17:01:33.269Z,101581.72
2023-02-19T17:04:03.605Z,101588.34
2023-02-19T17:06:30.310Z,101593.28
2023-02-19T17:08:56.609Z,101603.16
2023-02-19T17:11:23.581Z,101596.38
2023-02-19T17:13:49.891Z,101596.44
2023-02-19T17:16:25.443Z,101596.09
2023-02-19T17:18:51.780Z,101596.50
2023-02-19T17:21:27.719Z,101597.19
2023-02-19T17:23:54.822Z,101602.78
2023-02-19T17:26:27.288Z,101598.72
2023-02-19T17:28:56.282Z,101610.19
2023-02-19T17:31:22.710Z,101606.66
2023-02-19T17:33:49.037Z,101609.88
2023-02-19T17:36:21.600Z,101616.53
2023-02-19T17:38:48.021Z,101605.19
2023-02-19T17:41:14.334Z,101609.31
2023-02-19T17:43:40.866Z,101607.38
2023-02-19T17:46:07.201Z,101599.50
2023-02-19T17:48:33.529Z,101616.28
2023-02-19T17:50:59.843Z,101609.50
2023-02-19T17:53:26.128Z,101617.81
2023-02-19T17:55:52.459Z,101623.66
2023-02-19T17:58:18.744Z,101628.53
2023-02-19T18:00:45.040Z,101626.72
2023-02-19T18:03:11.364Z,101626.66
2023-02-19T18:05:37.654Z,101629.13
2023-02-19T18:08:03.971Z,101631.53
2023-02-19T18:10:30.289Z,101636.59
2023-02-19T18:12:56.816Z,101632.97
2023-02-19T18:15:25.607Z,101626.16
2023-02-19T18:17:52.687Z,101634.56
2023-02-19T18:20:25.444Z,101631.13
2023-02-19T18:22:52.336Z,101634.28
2023-02-19T18:25:19.977Z,101646.31
2023-02-19T18:27:46.911Z,101640.13
2023-02-19T18:30:14.683Z,101647.88
2023-02-19T18:32:40.986Z,101648.75
2023-02-19T18:35:07.815Z,101641.09
2023-02-19T18:37:34.270Z,101650.13
2023-02-19T18:40:01.659Z,101649.75
2023-02-19T18:42:28.442Z,101659.59
2023-02-19T18:44:57.900Z,101669.44
2023-02-19T18:47:28.450Z,101662.66
2023-02-19T18:49:57.632Z,101657.59
2023-02-19T18:52:26.058Z,101657.28
2023-02-19T18:54:55.853Z,101665.66
2023-02-19T18:57:26.648Z,101665.47
2023-02-19T18:59:53.589Z,101668.78
2023-02-19T19:02:19.997Z,101661.91
2023-02-19T19:04:51.346Z,101661.63
2023-02-19T19:07:18.296Z,101662.34
2023-02-19T19:09:44.699Z,101668.13
2023-02-19T19:12:14.072Z,101662.03
2023-02-19T19:14:40.562Z,101658.78
2023-02-19T19:17:06.968Z,101660.16
2023-02-19T19:19:33.269Z,101654.16
2023-02-19T19:21:59.576Z,101657.56
2023-02-19T19:24:25.864Z,101664.97
2023-02-19T19:26:52.529Z,101673.22
2023-02-19T19:29:23.781Z,101663.91
2023-02-19T19:31:50.231Z,101670.47
2023-02-19T19:34:19.091Z,101663.59
2023-02-19T19:36:46.884Z,101660.94
2023-02-19T19:39:13.368Z,101660.69
2023-02-19T19:41:39.787Z,101668.03
2023-02-19T19:44:08.080Z,101670.91
2023-02-19T19:46:34.609Z,101670.75
2023-02-19T19:49:01.157Z,101665.25
2023-02-19T19:51:34.161Z,101658.13
2023-02-19T19:54:00.452Z,101653.94
2023-02-19T19:56:26.777Z,101647.06
2023-02-19T19:58:53.275Z,101650.31
2023-02-19T20:01:19.709Z,101652.69
2023-02-19T20:03:49.310Z,101651.56
2023-02-19T20:06:24.419Z,101645.66
2023-02-19T20:08:50.699Z,101645.66
2023-02-19T20:11:17.018Z,101647.25
2023-02-19T20:13:43.630Z,101654.97
2023-02-19T20:16:10.013Z,101654.09
2023-02-19T20:18:36.360Z,101662.53
2023-02-19T20:21:02.699Z,101659.16
2023-02-19T20:23:29.602Z,101655.91
2023-02-19T20:25:59.648Z,101661.84
2023-02-19T20:28:26.076Z,101663.13
2023-02-19T20:30:52.428Z,101672.19
2023-02-19T20:33:20.236Z,101663.81
2023-02-19T20:35:46.503Z,101659.47
2023-02-19T20:38:16.237Z,101667.78
2023-02-19T20:40:43.108Z,101676.75
2023-02-19T20:43:12.320Z,101686.78
2023-02-19T20:45:40.915Z,101682.44
2023-02-19T20:48:07.231Z,101675.81
2023-02-19T20:50:33.515Z,101684.25
2023-02-19T20:52:59.808Z,101684.25
2023-02-19T20:55:31.151Z,101676.94
2023-02-19T20:57:57.498Z,101678.88
2023-02-19T21:00:23.952Z,101675.41
2023-02-19T21:02:50.288Z,101668.88
2023-02-19T21:05:17.446Z,101677.25
2023-02-19T21:07:43.734Z,101680.56
2023-02-19T21:10:10.203Z,101680.88
2023-02-19T21:12:36.502Z,101690.28
2023-02-19T21:15:03.386Z,101691.13
2023-02-19T21:17:29.927Z,101693.53
2023-02-19T21:19:56.247Z,101687.34
2023-02-19T21:22:22.590Z,101681.50
2023-02-19T21:24:51.838Z,101677.16
2023-02-19T21:27:19.127Z,101674.56
2023-02-19T21:29:46.593Z,101671.22
2023-02-19T21:32:12.925Z,101666.81
2023-02-19T21:34:39.292Z,101654.81
2023-02-19T21:37:05.574Z,101655.59
2023-02-19T21:39:31.973Z,101650.25
2023-02-19T21:41:58.249Z,101651.81
2023-02-19T21:44:25.753Z,101647.53
2023-02-19T21:46:51.966Z,101643.97
2023-02-19T21:49:18.402Z,101639.66
2023-02-19T21:51:45.636Z,101632.97
2023-02-19T21:54:17.303Z,101632.31
2023-02-19T21:56:43.715Z,101633.09
2023-02-19T21:59:10.398Z,101634.59
2023-02-19T22:01:38.508Z,101629.56
2023-02-19T22:04:06.457Z,101628.47
2023-02-19T22:06:33.359Z,101628.56
2023-02-19T22:09:00.338Z,101619.53
2023-02-19T22:11:26.714Z,101616.47
2023-02-19T22:13:53.079Z,101607.16
2023-02-19T22:16:19.679Z,101611.41
2023-02-19T22:18:47.677Z,101601.31
2023-02-19T22:21:14.318Z,101597.84
2023-02-19T22:23:43.859Z,101587.06
2023-02-19T22:26:17.116Z,101585.50
2023-02-19T22:28:43.422Z,101591.03
2023-02-19T22:31:09.712Z,101587.41
2023-02-19T22:33:36.008Z,101588.84
2023-02-19T22:36:02.288Z,101585.28
2023-02-19T22:38:28.581Z,101590.41
2023-02-19T22:40:54.880Z,101589.94
2023-02-19T22:43:21.150Z,101595.94
2023-02-19T22:45:47.535Z,101593.25
2023-02-19T22:48:19.234Z,101600.66
2023-02-19T22:50:51.461Z,101596.88
2023-02-19T22:53:17.892Z,101606.59
2023-02-19T22:55:44.189Z,101614.16
2023-02-19T22:58:10.464Z,101620.88
2023-02-19T23:00:36.743Z,101629.13
2023-02-19T23:03:03.174Z,101620.56
2023-02-19T23:05:29.474Z,101628.75
2023-02-19T23:07:55.796Z,101626.06
2023-02-19T23:10:22.188Z,101615.25
2023-02-19T23:12:48.481Z,101629.53
2023-02-19T23:15:14.900Z,101617.94
2023-02-19T23:17:41.252Z,101620.56
2023-02-19T23:20:08.183Z,101619.34
2023-02-19T23:22:34.491Z,101613.50
2023-02-19T23:25:01.223Z,101608.53
2023-02-19T23:27:27.529Z,101606.72
2023-02-19T23:29:54.762Z,101600.09
2023-02-19T23:32:21.282Z,101600.59
2023-02-19T23:34:48.018Z,101603.81
2023-02-19T23:37:15.040Z,101595.13
2023-02-19T23:39:41.360Z,101599.06
2023-02-19T23:42:07.651Z,101596.44
2023-02-19T23:44:33.973Z,101595.75
2023-02-19T23:47:00.270Z,101577.78
2023-02-19T23:49:26.582Z,101583.53
2023-02-19T23:51:52.907Z,101577.44
2023-02-19T23:54:19.191Z,101574.91
2023-02-19T23:56:45.477Z,101567.34
2023-02-19T23:59:12.003Z,101555.75
